Time;durP1;ratioP1;P1;durP2;ratioP2;P2;SDS_P1;SDS_P2;PMS_P1;PMS_P2;Temp;Humidity;BMP_temperature;BMP_pressure;BME280_temperature;BME280_humidity;BME280_pressure;Samples;Min_cycle;Max_cycle;Signal;HPM_P1;HPM_P2
2022/01/20 00:01:46;;;;;;;4.75;2.70;;;22.40;32.30;;;;;;5094714;28;20393;-67
2022/01/20 00:04:25;;;;;;;4.60;2.80;;;22.40;31.90;;;;;;5094074;28;20450;-70
2022/01/20 00:20:39;;;;;;;3.58;2.70;;;22.40;31.70;;;;;;5095449;28;20823;-66
2022/01/20 00:25:54;;;;;;;3.60;2.40;;;22.30;31.70;;;;;;5094377;28;20954;-66
2022/01/20 00:26:41;;;;;;;4.07;2.38;;;22.30;31.60;;;;;;5094319;28;20398;-67
2022/01/20 00:29:13;;;;;;;3.72;2.50;;;22.30;31.50;;;;;;5094556;28;20391;-66
2022/01/20 00:32:02;;;;;;;3.50;2.28;;;22.30;31.40;;;;;;5094235;28;20447;-67
2022/01/20 00:35:03;;;;;;;5.90;2.40;;;22.30;31.40;;;;;;5094103;28;20895;-67
2022/01/20 00:37:18;;;;;;;2.70;2.30;;;22.30;31.30;;;;;;5093961;28;20402;-68
2022/01/20 00:39:45;;;;;;;3.58;2.20;;;22.20;31.20;;;;;;5094213;28;20393;-67
2022/01/20 00:42:10;;;;;;;3.43;2.20;;;22.20;31.20;;;;;;5093500;28;20394;-72
2022/01/20 00:44:36;;;;;;;3.20;2.20;;;22.20;31.10;;;;;;5075687;28;20467;-67
2022/01/20 00:47:02;;;;;;;2.72;2.13;;;22.20;31.20;;;;;;5093836;28;20392;-66
2022/01/20 00:49:29;;;;;;;2.80;2.10;;;22.10;31.00;;;;;;5093991;28;20406;-67
2022/01/20 00:51:54;;;;;;;2.67;2.28;;;21.90;31.00;;;;;;5092718;28;20772;-67
2022/01/20 00:54:20;;;;;;;3.40;2.30;;;21.90;31.10;;;;;;5094377;28;20397;-66
2022/01/20 00:56:47;;;;;;;2.70;2.13;;;22.00;31.20;;;;;;5094177;28;20752;-66
2022/01/20 00:59:13;;;;;;;2.90;2.20;;;21.90;31.00;;;;;;5094058;28;20382;-66
2022/01/20 01:01:38;;;;;;;2.95;2.20;;;21.90;31.10;;;;;;5093614;28;20493;-67
2022/01/20 01:04:04;;;;;;;3.00;2.40;;;21.80;31.10;;;;;;5093362;28;20430;-67
2022/01/20 01:06:51;;;;;;;3.28;2.30;;;21.80;31.10;;;;;;5093628;28;20428;-67
2022/01/20 01:09:17;;;;;;;2.67;1.92;;;21.80;31.10;;;;;;5093470;28;20378;-69
2022/01/20 01:11:45;;;;;;;3.33;2.00;;;21.80;31.20;;;;;;5093799;28;20747;-66
2022/01/20 01:14:11;;;;;;;2.97;2.08;;;21.80;31.20;;;;;;5093631;28;20382;-67
2022/01/20 01:24:43;;;;;;;2.50;1.90;;;21.60;31.30;;;;;;5093403;28;20621;-67
2022/01/20 01:27:11;;;;;;;2.53;1.90;;;21.70;31.30;;;;;;5093067;28;20927;-65
2022/01/20 01:32:12;;;;;;;2.38;2.08;;;21.60;31.30;;;;;;5092666;28;20758;-67
2022/01/20 01:34:41;;;;;;;2.90;1.95;;;21.60;31.30;;;;;;5093218;28;20402;-67
2022/01/20 01:37:23;;;;;;;2.25;1.75;;;21.50;31.00;;;;;;5092876;28;21049;-67
2022/01/20 01:39:49;;;;;;;2.40;1.90;;;21.50;31.30;;;;;;5092827;28;20439;-66
2022/01/20 01:42:21;;;;;;;2.38;1.67;;;21.50;31.30;;;;;;5092344;28;20382;-69
2022/01/20 01:44:46;;;;;;;2.10;1.70;;;21.50;31.20;;;;;;5092646;28;20409;-69
2022/01/20 01:47:12;;;;;;;2.38;1.70;;;21.40;31.20;;;;;;5092687;28;20390;-67
2022/01/20 01:49:37;;;;;;;2.43;1.70;;;21.40;31.20;;;;;;5092876;28;20386;-67
2022/01/20 01:52:03;;;;;;;2.30;1.60;;;21.40;31.10;;;;;;5092272;28;20890;-66
2022/01/20 01:54:30;;;;;;;2.50;1.57;;;21.40;31.20;;;;;;5092588;28;20733;-67
2022/01/20 01:56:56;;;;;;;2.00;1.50;;;21.40;31.30;;;;;;5092551;28;20393;-66
2022/01/20 01:59:21;;;;;;;1.90;1.63;;;21.40;31.30;;;;;;5092515;28;20475;-66
2022/01/20 02:01:47;;;;;;;2.03;1.58;;;21.30;31.30;;;;;;5092441;28;20389;-66
2022/01/20 02:04:19;;;;;;;2.30;1.70;;;21.30;31.20;;;;;;5073673;28;20464;-67
2022/01/20 02:07:14;;;;;;;2.20;1.42;;;21.20;31.20;;;;;;5092748;28;20382;-67
2022/01/20 02:17:51;;;;;;;2.28;1.50;;;21.20;31.30;;;;;;5092316;28;20476;-66
2022/01/20 02:20:39;;;;;;;1.90;1.42;;;21.20;31.30;;;;;;5092101;28;20748;-67
2022/01/20 02:23:05;;;;;;;1.80;1.50;;;21.20;31.20;;;;;;5073837;28;20835;-67
2022/01/20 02:25:34;;;;;;;1.60;1.20;;;21.20;31.30;;;;;;5091913;28;20554;-68
2022/01/20 02:28:05;;;;;;;1.65;1.35;;;21.20;31.30;;;;;;5073788;28;20412;-68
2022/01/20 02:30:31;;;;;;;1.90;1.40;;;21.20;31.40;;;;;;5092115;28;20479;-67
2022/01/20 02:33:00;;;;;;;2.13;1.35;;;21.20;31.40;;;;;;5091940;28;20779;-70
2022/01/20 02:35:29;;;;;;;1.83;1.40;;;21.10;31.40;;;;;;5091710;28;20420;-66
2022/01/20 02:38:00;;;;;;;1.92;1.40;;;21.00;31.00;;;;;;5091714;28;20868;-69
2022/01/20 02:45:40;;;;;;;1.98;1.40;;;21.10;31.50;;;;;;5091575;28;20420;-66
2022/01/20 02:48:06;;;;;;;1.95;1.40;;;21.10;31.50;;;;;;5091010;28;20398;-66
2022/01/20 02:50:31;;;;;;;1.67;1.20;;;21.00;31.40;;;;;;5073642;28;20914;-71
2022/01/20 02:52:57;;;;;;;1.53;1.20;;;21.00;31.30;;;;;;5091472;28;20805;-66
2022/01/20 02:55:23;;;;;;;1.50;1.27;;;21.00;31.40;;;;;;5091526;28;20401;-66
2022/01/20 02:57:48;;;;;;;1.45;1.30;;;21.00;31.40;;;;;;5091680;28;20434;-66
2022/01/20 03:00:14;;;;;;;2.05;1.38;;;21.00;31.50;;;;;;5073082;28;20414;-66
2022/01/20 03:02:42;;;;;;;2.47;1.40;;;21.00;31.60;;;;;;5091714;28;20381;-65
2022/01/20 03:05:10;;;;;;;1.35;1.10;;;21.00;31.40;;;;;;5091479;28;20898;-70
2022/01/20 03:07:36;;;;;;;1.48;1.10;;;21.00;31.30;;;;;;5073630;28;20398;-65
2022/01/20 03:10:07;;;;;;;1.70;1.13;;;20.90;31.30;;;;;;5091643;28;20397;-66
2022/01/20 03:12:32;;;;;;;1.90;1.10;;;20.90;31.50;;;;;;5091409;28;20382;-66
2022/01/20 03:14:58;;;;;;;1.45;1.10;;;20.90;31.60;;;;;;5093797;28;20458;-72
2022/01/20 03:17:24;;;;;;;1.80;1.20;;;20.90;31.60;;;;;;5095627;28;20836;-67
2022/01/20 03:19:49;;;;;;;1.65;1.27;;;20.90;31.60;;;;;;5077198;28;20390;-67
2022/01/20 03:22:15;;;;;;;1.70;1.13;;;20.90;31.50;;;;;;5095174;28;20382;-72
2022/01/20 03:24:41;;;;;;;1.42;1.08;;;20.90;31.50;;;;;;5077168;28;20478;-66
2022/01/20 03:27:07;;;;;;;2.10;1.20;;;20.90;31.60;;;;;;5095396;28;20871;-67
2022/01/20 03:29:33;;;;;;;1.45;1.08;;;20.90;31.60;;;;;;5095368;28;20879;-67
2022/01/20 03:31:58;;;;;;;1.67;1.30;;;20.90;31.60;;;;;;5077235;28;20391;-69
2022/01/20 03:34:24;;;;;;;1.60;1.20;;;20.80;31.60;;;;;;5094834;28;20382;-65
2022/01/20 03:36:50;;;;;;;1.60;1.20;;;20.80;31.60;;;;;;5095460;28;20381;-66
2022/01/20 03:39:16;;;;;;;1.50;1.10;;;20.80;31.60;;;;;;5095227;28;20469;-68
2022/01/20 03:41:42;;;;;;;1.60;1.15;;;20.80;31.70;;;;;;5094989;28;20747;-67
2022/01/20 03:44:08;;;;;;;1.70;1.25;;;20.80;31.70;;;;;;5094726;28;20390;-66
2022/01/20 03:46:33;;;;;;;2.28;1.50;;;20.80;31.80;;;;;;5095065;28;20453;-68
2022/01/20 03:49:20;;;;;;;2.33;1.45;;;20.80;32.00;;;;;;5094858;28;20405;-67
2022/01/20 03:51:46;;;;;;;2.13;1.40;;;20.80;31.70;;;;;;5094896;28;20424;-66
2022/01/20 03:54:12;;;;;;;2.38;1.60;;;20.70;31.70;;;;;;5094512;28;20409;-65
2022/01/20 03:56:37;;;;;;;2.38;1.42;;;20.70;31.70;;;;;;5094750;28;20778;-65
2022/01/20 03:59:03;;;;;;;2.17;1.47;;;20.70;31.70;;;;;;5076203;28;20763;-71
2022/01/20 04:01:28;;;;;;;3.40;1.45;;;20.70;31.80;;;;;;5095188;28;20859;-65
2022/01/20 04:03:54;;;;;;;1.70;1.30;;;20.70;31.80;;;;;;5094720;28;20859;-65
2022/01/20 04:06:20;;;;;;;1.98;1.20;;;20.70;31.80;;;;;;5094144;28;20405;-66
2022/01/20 04:08:47;;;;;;;3.37;1.40;;;20.70;31.90;;;;;;5076422;28;20390;-65
2022/01/20 04:11:21;;;;;;;4.17;1.23;;;20.70;32.40;;;;;;5094512;28;20412;-71
2022/01/20 04:13:47;;;;;;;6.20;2.20;;;20.80;32.70;;;;;;5076856;28;20425;-67
2022/01/20 04:16:19;;;;;;;3.80;2.85;;;20.90;32.60;;;;;;5094300;28;20426;-66
2022/01/20 04:18:52;;;;;;;4.88;2.58;;;20.80;33.60;;;;;;5095327;28;20386;-66
2022/01/20 04:21:20;;;;;;;3.90;2.00;;;20.80;34.20;;;;;;5095250;28;20417;-66
2022/01/20 04:23:46;;;;;;;7.03;1.60;;;20.80;34.40;;;;;;5094263;28;20884;-65
2022/01/20 04:26:11;;;;;;;3.60;1.67;;;20.90;34.90;;;;;;5092535;28;20425;-65
2022/01/20 04:28:37;;;;;;;3.40;1.60;;;21.00;34.50;;;;;;5094277;28;20886;-65
2022/01/20 04:31:03;;;;;;;3.30;1.53;;;20.90;33.70;;;;;;5094163;28;20760;-70
2022/01/20 04:33:28;;;;;;;3.75;1.60;;;20.90;33.60;;;;;;5094515;28;20516;-64
2022/01/20 04:35:54;;;;;;;3.53;1.50;;;20.80;34.00;;;;;;5094204;28;20796;-65
2022/01/20 04:38:20;;;;;;;3.88;1.30;;;20.80;34.40;;;;;;5094718;28;20981;-70
2022/01/20 04:40:46;;;;;;;2.00;1.30;;;20.80;34.90;;;;;;5094252;28;20798;-66
2022/01/20 04:43:11;;;;;;;2.40;1.30;;;20.90;34.10;;;;;;5093813;28;20895;-69
2022/01/20 04:45:45;;;;;;;8.35;1.38;;;20.90;34.50;;;;;;5094110;28;20507;-67
2022/01/20 04:48:24;;;;;;;3.15;1.30;;;20.90;34.70;;;;;;5093549;28;20501;-65
2022/01/20 04:59:03;;;;;;;3.60;1.15;;;21.00;34.50;;;;;;5091271;28;20498;-69
2022/01/20 05:01:30;;;;;;;2.78;1.10;;;21.00;33.80;;;;;;5101155;28;20386;-65
2022/01/20 05:03:56;;;;;;;1.83;1.33;;;20.90;33.40;;;;;;5092610;28;20433;-67
2022/01/20 05:06:22;;;;;;;2.05;1.30;;;20.90;33.50;;;;;;5075351;28;20390;-66
2022/01/20 05:08:49;;;;;;;1.40;1.00;;;20.90;33.80;;;;;;5093933;28;20864;-65
2022/01/20 05:11:16;;;;;;;2.10;1.10;;;20.90;33.90;;;;;;5092939;28;20398;-65
2022/01/20 05:13:41;;;;;;;3.58;1.20;;;20.90;33.60;;;;;;5075799;28;20386;-65
2022/01/20 05:16:08;;;;;;;1.80;1.20;;;20.90;33.70;;;;;;5089575;28;20401;-68
2022/01/20 05:18:35;;;;;;;4.05;1.30;;;20.80;33.60;;;;;;5092653;28;20401;-66
2022/01/20 05:21:01;;;;;;;2.20;1.50;;;20.80;33.70;;;;;;5093301;28;20393;-66
2022/01/20 05:23:26;;;;;;;4.03;1.45;;;20.80;34.30;;;;;;5093120;28;20382;-66
2022/01/20 05:25:52;;;;;;;18.50;2.72;;;20.80;34.40;;;;;;5093195;28;20463;-66
2022/01/20 05:28:18;;;;;;;9.20;2.00;;;20.80;34.50;;;;;;5092509;28;20433;-67
2022/01/20 05:30:44;;;;;;;6.63;1.80;;;20.90;34.10;;;;;;5093012;28;20402;-66
2022/01/20 05:33:10;;;;;;;8.45;1.98;;;21.00;34.10;;;;;;5110521;28;20734;-67
2022/01/20 05:35:36;;;;;;;13.20;2.47;;;21.00;34.30;;;;;;5095192;28;20392;-66
2022/01/20 05:38:01;;;;;;;12.75;2.45;;;21.10;34.10;;;;;;5113757;28;20407;-71
2022/01/20 05:40:28;;;;;;;11.38;2.20;;;21.10;33.90;;;;;;5112832;28;20754;-68
2022/01/20 05:42:53;;;;;;;12.00;2.13;;;21.20;33.90;;;;;;5113245;28;20392;-68
2022/01/20 05:45:20;;;;;;;8.40;1.98;;;21.20;33.80;;;;;;5094755;28;20408;-67
2022/01/20 05:47:47;;;;;;;10.30;2.00;;;21.20;34.10;;;;;;5112870;28;20837;-70
2022/01/20 05:50:20;;;;;;;8.32;1.83;;;21.20;34.00;;;;;;5112516;28;20396;-67
2022/01/20 05:52:46;;;;;;;8.05;1.90;;;21.20;34.40;;;;;;5113083;28;20410;-65
2022/01/20 05:55:17;;;;;;;10.60;2.10;;;21.20;33.70;;;;;;5112977;28;20489;-65
2022/01/20 05:57:43;;;;;;;9.73;1.70;;;21.30;33.90;;;;;;5113172;28;20372;-65
2022/01/20 06:00:15;;;;;;;8.55;2.13;;;21.20;33.60;;;;;;5094432;28;20407;-65
2022/01/20 06:05:25;;;;;;;8.50;1.70;;;21.30;33.10;;;;;;5112626;28;20424;-67
2022/01/20 06:07:51;;;;;;;7.80;1.77;;;21.30;33.10;;;;;;5112469;28;20380;-70
2022/01/20 06:10:17;;;;;;;12.00;1.60;;;21.30;33.00;;;;;;5111831;28;20395;-66
2022/01/20 06:12:43;;;;;;;6.60;1.73;;;21.30;32.90;;;;;;5112838;28;20388;-66
2022/01/20 06:15:10;;;;;;;10.50;1.83;;;21.30;32.80;;;;;;5112525;28;20381;-66
2022/01/20 06:17:37;;;;;;;6.80;1.73;;;21.20;32.70;;;;;;5112945;28;20383;-66
2022/01/20 06:20:05;;;;;;;7.78;1.55;;;21.20;32.60;;;;;;5112442;28;20417;-67
2022/01/20 06:22:31;;;;;;;7.18;1.60;;;21.30;32.50;;;;;;5096208;28;20382;-66
2022/01/20 06:24:56;;;;;;;5.32;1.40;;;21.30;32.50;;;;;;5091809;28;20423;-65
2022/01/20 06:27:22;;;;;;;4.20;1.33;;;21.20;32.40;;;;;;5091733;28;20821;-71
2022/01/20 06:29:47;;;;;;;6.45;1.50;;;21.30;32.70;;;;;;5091791;28;20875;-71
2022/01/20 06:32:13;;;;;;;4.30;1.47;;;21.30;33.80;;;;;;5091328;28;20558;-65
2022/01/20 06:34:39;;;;;;;8.50;2.15;;;21.40;34.30;;;;;;5091866;28;20394;-67
2022/01/20 06:37:04;;;;;;;5.13;1.70;;;21.40;35.10;;;;;;5091652;28;20425;-66
2022/01/20 06:39:30;;;;;;;4.50;1.90;;;21.40;34.50;;;;;;5092333;28;20496;-65
2022/01/20 06:41:56;;;;;;;4.90;1.70;;;21.50;35.80;;;;;;5090367;28;20398;-65
2022/01/20 06:44:22;;;;;;;9.20;1.80;;;21.50;35.70;;;;;;5090619;28;20394;-70
2022/01/20 06:46:49;;;;;;;5.00;1.70;;;21.50;35.30;;;;;;5091100;28;20456;-65
2022/01/20 06:49:16;;;;;;;4.20;1.70;;;21.50;35.20;;;;;;5089796;28;20401;-64
2022/01/20 06:51:42;;;;;;;6.60;1.65;;;21.50;34.60;;;;;;5091212;28;20390;-65
2022/01/20 06:54:08;;;;;;;5.25;1.52;;;21.50;34.30;;;;;;5091369;28;20414;-67
2022/01/20 06:56:34;;;;;;;6.22;1.60;;;21.50;34.20;;;;;;5090549;28;20914;-66
2022/01/20 06:58:59;;;;;;;4.53;1.37;;;21.50;34.10;;;;;;5087222;28;20394;-66
2022/01/20 07:01:25;;;;;;;4.53;1.30;;;21.50;33.60;;;;;;5090697;28;20409;-66
2022/01/20 07:03:51;;;;;;;4.87;1.50;;;21.50;33.50;;;;;;5091124;28;20409;-66
2022/01/20 07:06:16;;;;;;;3.92;1.20;;;21.50;33.40;;;;;;5091227;28;20401;-65
2022/01/20 07:08:42;;;;;;;3.37;1.20;;;21.50;33.30;;;;;;5092202;28;20739;-64
2022/01/20 07:11:08;;;;;;;3.50;1.10;;;21.50;33.20;;;;;;5091318;28;20390;-66
2022/01/20 07:13:35;;;;;;;3.77;1.20;;;21.50;32.90;;;;;;5091298;28;20772;-65
2022/01/20 07:16:02;;;;;;;3.00;1.10;;;21.50;32.90;;;;;;5106918;28;20501;-64
2022/01/20 07:18:27;;;;;;;2.33;1.02;;;21.50;32.80;;;;;;5090817;28;20394;-65
2022/01/20 07:20:53;;;;;;;3.10;1.00;;;21.50;32.70;;;;;;5091145;28;20392;-65
2022/01/20 07:23:19;;;;;;;3.17;1.17;;;21.50;32.90;;;;;;5091156;28;20382;-65
2022/01/20 07:25:46;;;;;;;2.20;1.15;;;21.50;32.70;;;;;;5073329;28;20421;-74
2022/01/20 07:28:11;;;;;;;2.08;0.95;;;21.50;32.40;;;;;;5092532;28;20382;-73
2022/01/20 07:30:37;;;;;;;3.10;1.02;;;21.40;32.60;;;;;;5108531;28;20528;-76
2022/01/20 07:33:05;;;;;;;2.43;0.90;;;21.30;32.80;;;;;;5091651;28;20442;-74
2022/01/20 07:35:31;;;;;;;3.33;0.90;;;21.40;33.20;;;;;;5091660;28;20385;-74
2022/01/20 07:37:57;;;;;;;1.88;0.95;;;21.40;33.00;;;;;;5091070;28;20385;-74
2022/01/20 07:40:23;;;;;;;1.98;0.80;;;21.50;33.00;;;;;;5106335;28;20401;-74
2022/01/20 07:42:49;;;;;;;2.42;1.30;;;21.50;33.30;;;;;;5106616;28;20401;-74
2022/01/20 07:45:17;;;;;;;2.40;1.40;;;21.50;35.50;;;;;;5090998;28;20471;-74
2022/01/20 07:47:43;;;;;;;3.80;1.33;;;21.50;34.10;;;;;;5090813;28;20802;-74
2022/01/20 07:50:09;;;;;;;2.97;1.30;;;21.50;33.20;;;;;;5090760;28;20414;-74
2022/01/20 07:52:36;;;;;;;1.88;1.02;;;21.50;34.00;;;;;;5090716;28;20382;-74
2022/01/20 07:55:01;;;;;;;2.08;0.90;;;21.50;32.90;;;;;;5090818;28;20390;-74
2022/01/20 07:57:27;;;;;;;2.33;1.00;;;21.50;32.90;;;;;;5090967;28;20933;-74
2022/01/20 07:59:53;;;;;;;1.90;0.90;;;21.50;32.50;;;;;;5091398;28;20449;-75
2022/01/20 08:02:18;;;;;;;2.08;0.90;;;21.50;32.80;;;;;;5094258;28;20385;-74
2022/01/20 08:04:44;;;;;;;1.93;0.70;;;21.50;32.40;;;;;;5094752;28;20401;-74
2022/01/20 08:07:10;;;;;;;1.90;0.80;;;21.50;32.40;;;;;;5094667;28;20390;-74
2022/01/20 08:09:36;;;;;;;1.60;0.80;;;21.40;32.30;;;;;;5094677;28;20382;-74
2022/01/20 08:12:04;;;;;;;1.70;0.80;;;21.40;32.30;;;;;;5076451;28;20482;-74
2022/01/20 08:14:30;;;;;;;1.48;0.70;;;21.40;32.20;;;;;;5076123;28;20386;-74
2022/01/20 08:16:56;;;;;;;1.63;0.80;;;21.40;32.00;;;;;;5095360;28;20752;-73
2022/01/20 08:19:22;;;;;;;1.45;0.85;;;21.40;32.00;;;;;;5094714;28;20382;-73
2022/01/20 08:21:47;;;;;;;1.37;0.63;;;21.40;31.90;;;;;;5094440;28;20381;-74
2022/01/20 08:24:13;;;;;;;1.13;0.70;;;21.40;31.90;;;;;;5094200;28;20895;-73
2022/01/20 08:26:39;;;;;;;2.60;0.70;;;21.40;31.90;;;;;;5094174;28;20394;-74
2022/01/20 08:29:05;;;;;;;1.48;0.73;;;21.30;32.00;;;;;;5094158;28;20875;-74
2022/01/20 08:31:31;;;;;;;1.07;0.60;;;21.20;32.00;;;;;;5093967;28;20532;-74
2022/01/20 08:33:57;;;;;;;1.30;0.80;;;21.10;32.20;;;;;;5094369;28;20453;-74
2022/01/20 08:36:23;;;;;;;2.20;0.80;;;21.00;32.40;;;;;;5093548;28;20386;-74
2022/01/20 08:38:49;;;;;;;2.30;0.85;;;21.10;32.40;;;;;;5094309;28;20386;-74
2022/01/20 08:41:14;;;;;;;1.63;0.75;;;21.10;32.30;;;;;;5076046;28;20393;-74
2022/01/20 08:43:40;;;;;;;1.38;0.70;;;21.00;32.30;;;;;;5094151;28;20899;-74
2022/01/20 08:46:08;;;;;;;1.08;0.73;;;21.00;32.40;;;;;;5093802;28;20467;-75
2022/01/20 08:48:35;;;;;;;1.45;0.80;;;20.90;32.50;;;;;;5093447;28;20479;-74
2022/01/20 08:51:01;;;;;;;1.13;0.75;;;20.90;32.50;;;;;;5094263;28;20903;-74
2022/01/20 08:53:27;;;;;;;1.30;0.75;;;20.90;32.60;;;;;;5093791;28;20382;-74
2022/01/20 08:55:53;;;;;;;1.30;0.80;;;20.90;32.40;;;;;;5094114;28;20752;-74
2022/01/20 08:58:19;;;;;;;1.30;0.82;;;20.90;32.40;;;;;;5093394;28;20377;-74
2022/01/20 09:00:45;;;;;;;1.33;0.80;;;20.90;32.40;;;;;;5093947;28;20393;-74
2022/01/20 09:03:12;;;;;;;1.30;0.85;;;20.80;32.60;;;;;;5076019;28;20382;-74
2022/01/20 09:05:38;;;;;;;1.30;0.88;;;20.90;32.50;;;;;;5093616;28;20421;-74
2022/01/20 09:08:04;;;;;;;1.25;0.90;;;20.90;32.40;;;;;;5092807;28;20374;-75
2022/01/20 09:10:37;;;;;;;1.13;0.80;;;20.90;32.20;;;;;;5092893;28;20382;-74
2022/01/20 09:15:50;;;;;;;1.10;0.60;;;21.00;32.20;;;;;;5093211;28;20772;-71
2022/01/20 09:18:20;;;;;;;3.33;0.95;;;21.00;32.70;;;;;;5054931;28;20403;-74
2022/01/20 09:20:46;;;;;;;2.37;1.20;;;21.10;33.50;;;;;;5073567;28;20379;-74
2022/01/20 09:23:12;;;;;;;2.67;1.00;;;21.20;34.10;;;;;;5072978;28;20399;-73
2022/01/20 09:25:39;;;;;;;3.13;1.10;;;21.20;34.20;;;;;;5054919;28;20412;-73
2022/01/20 09:28:05;;;;;;;4.00;1.00;;;21.30;34.40;;;;;;5072782;28;20384;-72
2022/01/20 09:30:31;;;;;;;2.63;1.17;;;21.30;35.50;;;;;;5054667;28;20403;-73
2022/01/20 09:33:00;;;;;;;2.20;0.90;;;21.30;35.30;;;;;;5073149;28;20384;-73
2022/01/20 09:35:33;;;;;;;3.30;1.08;;;21.30;34.60;;;;;;5073071;28;20421;-75
2022/01/20 09:38:01;;;;;;;2.40;0.80;;;21.20;34.40;;;;;;5072553;28;20410;-75
2022/01/20 09:40:30;;;;;;;2.30;0.90;;;21.20;34.00;;;;;;5072247;28;20399;-74
2022/01/20 09:42:56;;;;;;;2.20;0.90;;;21.30;34.00;;;;;;5073603;28;20392;-74
2022/01/20 09:45:21;;;;;;;2.38;1.05;;;21.20;33.70;;;;;;5073201;28;20916;-74
2022/01/20 09:47:47;;;;;;;2.60;0.90;;;21.20;33.50;;;;;;5072055;28;20410;-74
2022/01/20 09:50:18;;;;;;;3.50;0.97;;;21.20;33.50;;;;;;5072838;28;20422;-74
2022/01/20 09:52:48;;;;;;;2.17;0.82;;;21.20;33.30;;;;;;5073212;28;20441;-75
2022/01/20 09:55:15;;;;;;;2.03;0.93;;;21.20;33.20;;;;;;5072682;28;20387;-74
2022/01/20 09:57:41;;;;;;;1.00;0.70;;;21.20;33.00;;;;;;5072909;28;20465;-74
2022/01/20 10:00:15;;;;;;;3.47;0.90;;;21.20;32.90;;;;;;5072290;28;20398;-73
2022/01/20 10:03:06;;;;;;;1.40;0.70;;;21.20;32.80;;;;;;5072265;28;20399;-74
2022/01/20 10:05:50;;;;;;;1.70;0.80;;;21.30;32.70;;;;;;5072304;28;20470;-74
2022/01/20 10:08:24;;;;;;;1.13;0.80;;;21.20;32.60;;;;;;5072272;28;20446;-74
2022/01/20 10:10:51;;;;;;;1.10;0.73;;;21.10;32.30;;;;;;5067111;28;20962;-74
2022/01/20 10:13:21;;;;;;;1.40;0.70;;;21.00;32.80;;;;;;5091370;28;20760;-72
2022/01/20 10:16:17;;;;;;;1.20;0.80;;;20.90;33.00;;;;;;5091998;28;20374;-73
2022/01/20 10:18:54;;;;;;;1.05;0.70;;;20.90;33.10;;;;;;5073713;28;20401;-74
2022/01/20 10:21:31;;;;;;;1.75;0.70;;;20.90;33.10;;;;;;5092502;28;20366;-74
2022/01/20 10:24:12;;;;;;;1.20;0.70;;;20.90;32.90;;;;;;5093073;28;20425;-73
2022/01/20 10:26:39;;;;;;;1.40;0.75;;;20.80;32.80;;;;;;5092034;28;20402;-73
2022/01/20 10:29:13;;;;;;;1.20;0.80;;;20.80;32.80;;;;;;5091973;28;20385;-72
2022/01/20 10:31:46;;;;;;;1.23;0.80;;;20.70;33.00;;;;;;5093291;28;20843;-73
2022/01/20 10:34:34;;;;;;;1.50;0.70;;;20.70;33.20;;;;;;5073468;28;20860;-74
2022/01/20 10:37:06;;;;;;;1.50;0.80;;;20.80;33.20;;;;;;5091899;28;20398;-74
2022/01/20 10:39:40;;;;;;;1.38;0.70;;;20.70;33.20;;;;;;5073363;28;20393;-72
2022/01/20 10:42:25;;;;;;;1.15;0.60;;;20.60;33.30;;;;;;5091458;28;20386;-72
2022/01/20 10:44:53;;;;;;;1.33;0.80;;;20.60;33.10;;;;;;5073874;28;20406;-71
2022/01/20 10:47:24;;;;;;;1.10;0.70;;;20.60;33.10;;;;;;5073177;28;20461;-72
2022/01/20 10:49:50;;;;;;;1.00;0.70;;;20.60;33.50;;;;;;5091698;28;20398;-71
2022/01/20 10:52:32;;;;;;;1.10;0.70;;;20.60;33.30;;;;;;5073610;28;20394;-72
2022/01/20 10:54:58;;;;;;;1.30;0.60;;;20.60;33.20;;;;;;5091216;28;20378;-71
2022/01/20 10:57:30;;;;;;;0.77;0.50;;;20.60;33.30;;;;;;5089137;28;20733;-73
2022/01/20 11:00:06;;;;;;;1.02;0.80;;;20.60;33.20;;;;;;5091535;28;20415;-74
2022/01/20 11:02:32;;;;;;;3.03;0.80;;;20.50;33.20;;;;;;5091339;28;20453;-74
2022/01/20 11:04:59;;;;;;;1.30;0.70;;;20.50;33.40;;;;;;5092815;28;20899;-74
2022/01/20 11:07:26;;;;;;;1.45;0.80;;;20.50;33.30;;;;;;5074219;28;20390;-74
2022/01/20 11:10:06;;;;;;;1.43;0.90;;;20.50;33.30;;;;;;5093031;28;20465;-71
2022/01/20 11:12:34;;;;;;;1.73;0.90;;;20.50;33.30;;;;;;5090624;28;20795;-70
2022/01/20 11:15:10;;;;;;;1.10;0.80;;;20.40;33.40;;;;;;5091645;28;20394;-67
2022/01/20 11:17:40;;;;;;;2.27;0.90;;;20.50;33.60;;;;;;5065268;28;20510;-71
2022/01/20 11:20:21;;;;;;;1.98;1.02;;;20.60;33.60;;;;;;5071256;28;20429;-69
2022/01/20 11:23:09;;;;;;;1.75;0.93;;;20.60;33.50;;;;;;5081890;28;20386;-70
2022/01/20 11:25:45;;;;;;;2.30;0.90;;;20.60;33.60;;;;;;5091441;28;20973;-69
2022/01/20 11:28:16;;;;;;;1.80;0.80;;;20.70;33.70;;;;;;5091782;28;20379;-69
2022/01/20 11:31:04;;;;;;;1.98;1.08;;;20.70;33.60;;;;;;5072729;28;20423;-69
2022/01/20 11:33:48;;;;;;;2.72;0.88;;;20.70;33.70;;;;;;5091742;28;20379;-69
2022/01/20 11:36:25;;;;;;;1.63;0.90;;;20.70;33.70;;;;;;5094356;28;20380;-68
2022/01/20 11:38:58;;;;;;;2.88;0.90;;;20.70;33.70;;;;;;5095973;28;20414;-69
2022/01/20 11:41:39;;;;;;;1.70;0.90;;;20.70;33.70;;;;;;5094757;28;20390;-70
2022/01/20 11:44:12;;;;;;;1.63;0.80;;;20.70;33.60;;;;;;5094478;28;20394;-68
2022/01/20 11:46:44;;;;;;;1.20;0.88;;;20.70;33.60;;;;;;5076445;28;20442;-68
2022/01/20 11:49:13;;;;;;;1.50;0.80;;;20.80;33.70;;;;;;5094120;28;20406;-68
2022/01/20 11:51:58;;;;;;;1.30;0.90;;;20.80;33.60;;;;;;5093961;28;20451;-69
2022/01/20 11:54:32;;;;;;;1.52;0.90;;;20.70;33.60;;;;;;5093976;28;20386;-71
2022/01/20 11:57:16;;;;;;;1.67;0.77;;;20.70;33.70;;;;;;5088241;28;20440;-69
2022/01/20 11:59:51;;;;;;;2.40;0.80;;;20.70;33.70;;;;;;5085732;28;20394;-69
2022/01/20 12:02:30;;;;;;;1.65;0.80;;;20.60;33.70;;;;;;5076556;28;20397;-70
2022/01/20 12:04:56;;;;;;;0.90;0.70;;;20.70;33.70;;;;;;5076391;28;20941;-69
2022/01/20 12:07:30;;;;;;;1.17;0.80;;;20.70;33.80;;;;;;5076428;28;20818;-68
2022/01/20 12:10:08;;;;;;;3.30;1.00;;;20.70;34.10;;;;;;5076711;28;20398;-70
2022/01/20 12:12:35;;;;;;;1.90;0.90;;;20.70;34.30;;;;;;5076466;28;20752;-70
2022/01/20 12:15:18;;;;;;;2.33;1.08;;;20.60;34.60;;;;;;5076392;28;20409;-69
2022/01/20 12:17:52;;;;;;;1.95;1.10;;;20.70;34.10;;;;;;5076707;28;20420;-70
2022/01/20 12:20:19;;;;;;;2.60;1.50;;;20.80;35.60;;;;;;5076759;28;20978;-69
2022/01/20 12:22:46;;;;;;;3.83;1.52;;;20.90;35.10;;;;;;5076339;28;20447;-68
2022/01/20 12:25:28;;;;;;;3.72;1.70;;;20.90;36.20;;;;;;5076261;28;20398;-69
2022/01/20 12:28:07;;;;;;;4.18;2.50;;;20.90;36.60;;;;;;5076202;28;20798;-71
2022/01/20 12:30:36;;;;;;;5.90;2.90;;;21.00;37.80;;;;;;5091449;28;20394;-69
2022/01/20 12:33:03;;;;;;;6.38;3.40;;;21.10;40.20;;;;;;5073070;28;20466;-68
2022/01/20 12:35:44;;;;;;;3.10;1.83;;;21.20;40.60;;;;;;5093855;28;20386;-69
2022/01/20 12:38:20;;;;;;;3.95;1.80;;;21.20;39.70;;;;;;5095267;28;20743;-70
2022/01/20 12:41:08;;;;;;;3.38;1.70;;;21.30;39.50;;;;;;5090839;28;20477;-70
2022/01/20 12:43:42;;;;;;;3.75;1.60;;;21.30;39.40;;;;;;5093681;28;20867;-71
2022/01/20 12:46:13;;;;;;;5.07;1.40;;;21.30;38.00;;;;;;5091104;28;20414;-69
2022/01/20 12:48:56;;;;;;;2.92;1.20;;;21.20;38.30;;;;;;5060441;28;20413;-69
2022/01/20 12:51:36;;;;;;;3.75;1.42;;;21.30;39.00;;;;;;5053243;28;20396;-69
2022/01/20 12:54:05;;;;;;;2.20;1.20;;;21.20;38.70;;;;;;5048366;28;20906;-69
2022/01/20 12:56:34;;;;;;;2.47;1.20;;;21.20;38.30;;;;;;5049882;28;20473;-69
2022/01/20 12:59:01;;;;;;;3.20;1.10;;;21.20;38.10;;;;;;5051555;28;20409;-70
2022/01/20 13:01:43;;;;;;;2.90;1.40;;;21.20;38.00;;;;;;5051688;28;20385;-70
2022/01/20 13:04:14;;;;;;;2.10;1.07;;;21.30;37.80;;;;;;5049400;28;20396;-69
2022/01/20 13:06:49;;;;;;;2.30;1.10;;;21.20;37.50;;;;;;5048654;28;20405;-70
2022/01/20 13:09:18;;;;;;;2.10;1.05;;;21.20;37.30;;;;;;5049751;28;20398;-69
2022/01/20 13:11:59;;;;;;;1.80;0.93;;;21.20;37.20;;;;;;5050830;28;20394;-70
2022/01/20 13:14:41;;;;;;;1.63;1.10;;;21.20;36.80;;;;;;5050270;28;20403;-70
2022/01/20 13:17:13;;;;;;;1.77;0.82;;;21.20;36.50;;;;;;5051200;28;20772;-70
2022/01/20 13:19:45;;;;;;;1.45;0.82;;;21.20;36.10;;;;;;5053324;28;20392;-69
2022/01/20 13:22:25;;;;;;;0.95;0.75;;;21.20;36.00;;;;;;5046281;28;20394;-69
2022/01/20 13:24:51;;;;;;;2.10;0.90;;;21.10;35.60;;;;;;5048324;28;20907;-69
2022/01/20 13:27:17;;;;;;;1.30;0.77;;;21.10;35.30;;;;;;5051243;28;20475;-69
2022/01/20 13:29:46;;;;;;;0.98;0.60;;;21.10;35.00;;;;;;5052163;28;20432;-69
2022/01/20 13:32:13;;;;;;;1.02;0.60;;;21.00;34.90;;;;;;5050956;28;20393;-69
2022/01/20 13:34:50;;;;;;;1.70;0.70;;;21.00;34.80;;;;;;5050382;28;20414;-69
2022/01/20 13:37:16;;;;;;;1.30;0.73;;;21.00;35.10;;;;;;5049402;28;20456;-69
2022/01/20 13:39:44;;;;;;;1.65;0.75;;;21.00;34.90;;;;;;5050569;28;20406;-69
2022/01/20 13:42:38;;;;;;;1.02;0.70;;;21.00;34.40;;;;;;5050406;28;20464;-69
2022/01/20 13:45:14;;;;;;;1.30;0.70;;;21.00;34.40;;;;;;5050151;28;20417;-69
2022/01/20 13:47:54;;;;;;;1.10;0.60;;;21.00;34.50;;;;;;5050571;28;20413;-69
2022/01/20 13:50:28;;;;;;;1.52;0.75;;;21.00;33.80;;;;;;5046991;28;21159;-69